Time;durP1;ratioP1;P1;durP2;ratioP2;P2;SDS_P1;SDS_P2;PMS_P1;PMS_P2;Temp;Humidity;BMP_temperature;BMP_pressure;BME280_temperature;BME280_humidity;BME280_pressure;Samples;Min_cycle;Max_cycle;Signal;HPM_P1;HPM_P2
2022/08/15 00:02:11;;;;;;;6.77;6.17;;;;;;;;;;5091062;28;20548;-72
2022/08/15 00:04:38;;;;;;;6.80;6.20;;;;;;;;;;5093560;28;20467;-73
2022/08/15 00:07:06;;;;;;;7.67;5.53;;;;;;;;;;5093628;28;20449;-73
2022/08/15 00:09:34;;;;;;;7.40;6.07;;;;;;;;;;5093789;28;20454;-73
2022/08/15 00:12:01;;;;;;;6.93;5.70;;;;;;;;;;5094476;28;20447;-72
2022/08/15 00:14:31;;;;;;;6.80;6.10;;;;;;;;;;5094276;28;20545;-73
2022/08/15 00:16:58;;;;;;;6.57;5.93;;;;;;;;;;5095847;28;20864;-73
2022/08/15 00:19:29;;;;;;;6.90;6.30;;;;;;;;;;5072407;28;20451;-73
2022/08/15 00:21:59;;;;;;;6.53;6.00;;;;;;;;;;5069367;28;20556;-72
2022/08/15 00:24:28;;;;;;;6.20;5.70;;;;;;;;;;5071254;28;20442;-72
2022/08/15 00:26:57;;;;;;;6.40;5.77;;;;;;;;;;5092036;28;20439;-73
2022/08/15 00:29:26;;;;;;;5.70;5.30;;;;;;;;;;5075028;28;20475;-72
2022/08/15 00:31:53;;;;;;;5.73;5.13;;;;;;;;;;5075567;28;20449;-73
2022/08/15 00:34:22;;;;;;;7.00;6.30;;;;;;;;;;5093348;28;20534;-72
2022/08/15 00:36:49;;;;;;;6.40;5.63;;;;;;;;;;5076391;28;20629;-72
2022/08/15 00:39:17;;;;;;;6.33;5.70;;;;;;;;;;5095229;28;20948;-72
2022/08/15 00:41:46;;;;;;;6.30;5.70;;;;;;;;;;5055388;28;20626;-73
2022/08/15 00:44:16;;;;;;;6.00;5.50;;;;;;;;;;5068210;28;20920;-73
2022/08/15 00:46:44;;;;;;;5.80;5.30;;;;;;;;;;5070810;28;20436;-73
2022/08/15 00:49:12;;;;;;;6.30;5.80;;;;;;;;;;5072586;28;20764;-73
2022/08/15 00:51:42;;;;;;;6.50;5.90;;;;;;;;;;5053762;28;20440;-73
2022/08/15 00:54:10;;;;;;;6.27;5.77;;;;;;;;;;5073001;28;20531;-72
2022/08/15 00:56:41;;;;;;;6.07;5.47;;;;;;;;;;5072930;28;20535;-73
2022/08/15 00:59:10;;;;;;;5.63;5.13;;;;;;;;;;5073772;28;20967;-72
2022/08/15 01:01:39;;;;;;;6.27;5.67;;;;;;;;;;5056918;28;20493;-73
2022/08/15 01:04:08;;;;;;;6.20;5.63;;;;;;;;;;5070260;28;20449;-72
2022/08/15 01:06:37;;;;;;;6.23;5.63;;;;;;;;;;5068129;28;20432;-73
2022/08/15 01:09:05;;;;;;;9.17;5.93;;;;;;;;;;5071071;28;20432;-73
2022/08/15 01:11:36;;;;;;;6.60;6.10;;;;;;;;;;5054175;28;20455;-72
2022/08/15 01:14:06;;;;;;;6.50;5.77;;;;;;;;;;5054280;28;20448;-73
2022/08/15 01:16:34;;;;;;;5.60;5.10;;;;;;;;;;5055368;28;20460;-73
2022/08/15 01:19:04;;;;;;;5.57;5.07;;;;;;;;;;5053727;28;20448;-73
2022/08/15 01:21:35;;;;;;;5.67;5.17;;;;;;;;;;5056298;28;20441;-73
2022/08/15 01:24:08;;;;;;;5.87;5.33;;;;;;;;;;5073945;28;20446;-73
2022/08/15 01:26:39;;;;;;;5.60;5.20;;;;;;;;;;5068636;28;20491;-73
2022/08/15 01:29:06;;;;;;;5.87;5.37;;;;;;;;;;5067624;28;20524;-72
2022/08/15 01:31:34;;;;;;;4.93;4.53;;;;;;;;;;5051257;28;20437;-73
2022/08/15 01:34:01;;;;;;;5.23;4.73;;;;;;;;;;5051467;28;20853;-72
2022/08/15 01:36:31;;;;;;;5.17;4.70;;;;;;;;;;5051749;28;20462;-72
2022/08/15 01:39:01;;;;;;;5.10;4.70;;;;;;;;;;5052053;28;20441;-73
2022/08/15 01:41:30;;;;;;;4.50;4.10;;;;;;;;;;5053158;28;21066;-73
2022/08/15 01:44:03;;;;;;;6.80;4.37;;;;;;;;;;5094211;28;20927;-73
2022/08/15 01:46:32;;;;;;;5.20;4.70;;;;;;;;;;5094282;28;20550;-73
2022/08/15 01:49:03;;;;;;;5.07;4.67;;;;;;;;;;5069570;28;20428;-73
2022/08/15 01:51:30;;;;;;;5.07;4.57;;;;;;;;;;5069942;28;20436;-73
2022/08/15 01:53:59;;;;;;;7.30;4.40;;;;;;;;;;5091106;28;20436;-73
2022/08/15 01:56:30;;;;;;;5.40;4.90;;;;;;;;;;5091684;28;20455;-73
2022/08/15 01:59:01;;;;;;;5.63;4.77;;;;;;;;;;5092288;28;20439;-73
2022/08/15 02:01:38;;;;;;;4.60;4.20;;;;;;;;;;5074858;28;20542;-73
2022/08/15 02:04:05;;;;;;;4.73;4.33;;;;;;;;;;5073977;28;20590;-73
2022/08/15 02:06:33;;;;;;;4.87;4.50;;;;;;;;;;5093696;28;20466;-73
2022/08/15 02:09:02;;;;;;;6.83;4.43;;;;;;;;;;5092887;28;20440;-73
2022/08/15 02:11:30;;;;;;;4.83;4.43;;;;;;;;;;5087526;28;20431;-72
2022/08/15 02:13:59;;;;;;;4.83;4.23;;;;;;;;;;5069734;28;20535;-73
2022/08/15 02:16:30;;;;;;;5.07;4.57;;;;;;;;;;5091030;28;20532;-73
2022/08/15 02:18:57;;;;;;;4.83;4.33;;;;;;;;;;5073802;28;20431;-72
2022/08/15 02:21:24;;;;;;;4.97;4.50;;;;;;;;;;5073685;28;20858;-73
2022/08/15 02:23:52;;;;;;;4.43;4.10;;;;;;;;;;5091780;28;20483;-72
2022/08/15 02:26:19;;;;;;;5.30;4.60;;;;;;;;;;5091552;28;20558;-73
2022/08/15 02:28:47;;;;;;;4.83;4.43;;;;;;;;;;5093255;28;21016;-73
2022/08/15 02:31:16;;;;;;;4.03;3.63;;;;;;;;;;5092437;28;20427;-72
2022/08/15 02:33:47;;;;;;;6.87;4.60;;;;;;;;;;5068825;28;20515;-73
2022/08/15 02:36:16;;;;;;;4.80;4.40;;;;;;;;;;5088560;28;20447;-73
2022/08/15 02:38:45;;;;;;;4.90;4.40;;;;;;;;;;5091377;28;20444;-73
2022/08/15 02:41:13;;;;;;;5.03;4.57;;;;;;;;;;5090991;28;20547;-73
2022/08/15 02:43:43;;;;;;;8.17;4.47;;;;;;;;;;5090924;28;20669;-73
2022/08/15 02:46:10;;;;;;;5.60;4.30;;;;;;;;;;5091594;28;20471;-73
2022/08/15 02:48:39;;;;;;;5.87;4.60;;;;;;;;;;5091748;28;20458;-72
2022/08/15 02:51:08;;;;;;;5.03;4.63;;;;;;;;;;5093224;28;20447;-73
2022/08/15 02:53:35;;;;;;;4.70;4.30;;;;;;;;;;5091078;28;20780;-72
2022/08/15 02:56:06;;;;;;;4.23;3.83;;;;;;;;;;5086334;28;20451;-73
2022/08/15 02:58:34;;;;;;;4.30;3.90;;;;;;;;;;5088269;28;20966;-73
2022/08/15 03:01:02;;;;;;;5.40;4.30;;;;;;;;;;5090919;28;20493;-73
2022/08/15 03:03:29;;;;;;;5.03;4.53;;;;;;;;;;5076219;28;20982;-74
2022/08/15 03:05:58;;;;;;;5.20;4.70;;;;;;;;;;5094854;28;20812;-73
2022/08/15 03:08:25;;;;;;;4.40;3.93;;;;;;;;;;5095352;28;20446;-73
2022/08/15 03:10:53;;;;;;;5.43;4.83;;;;;;;;;;5095831;28;20554;-73
2022/08/15 03:13:20;;;;;;;5.60;4.77;;;;;;;;;;5097171;28;20454;-73
2022/08/15 03:15:48;;;;;;;5.77;4.70;;;;;;;;;;5094230;28;20896;-73
2022/08/15 03:18:16;;;;;;;5.27;4.60;;;;;;;;;;5071910;28;20457;-72
2022/08/15 03:20:45;;;;;;;4.70;4.33;;;;;;;;;;5074152;28;20444;-74
2022/08/15 03:23:13;;;;;;;6.50;5.07;;;;;;;;;;5094293;28;20485;-73
2022/08/15 03:25:42;;;;;;;5.73;4.00;;;;;;;;;;5076582;28;20538;-73
2022/08/15 03:28:09;;;;;;;4.53;4.13;;;;;;;;;;5094761;28;20806;-73
2022/08/15 03:30:37;;;;;;;5.13;4.43;;;;;;;;;;5094992;28;21185;-73
2022/08/15 03:33:06;;;;;;;6.00;3.93;;;;;;;;;;5077578;28;20889;-73
2022/08/15 03:35:38;;;;;;;6.17;4.27;;;;;;;;;;5078456;28;20550;-73
2022/08/15 03:38:06;;;;;;;4.03;3.60;;;;;;;;;;5093193;28;20457;-72
2022/08/15 03:40:34;;;;;;;4.50;3.90;;;;;;;;;;5089775;28;20455;-73
2022/08/15 03:43:03;;;;;;;5.60;3.97;;;;;;;;;;5092353;28;20876;-73
2022/08/15 03:45:30;;;;;;;3.93;3.53;;;;;;;;;;5094039;28;20554;-74
2022/08/15 03:47:57;;;;;;;4.20;3.80;;;;;;;;;;5093939;28;20439;-73
2022/08/15 03:50:25;;;;;;;5.57;3.30;;;;;;;;;;5094415;28;20545;-73
2022/08/15 03:52:53;;;;;;;4.50;4.10;;;;;;;;;;5094346;28;20446;-74
2022/08/15 03:55:20;;;;;;;4.20;3.80;;;;;;;;;;5095058;28;20475;-73
2022/08/15 03:57:49;;;;;;;4.80;3.83;;;;;;;;;;5096189;28;20999;-73
2022/08/15 04:00:18;;;;;;;3.83;3.53;;;;;;;;;;5074230;28;20430;-73
2022/08/15 04:02:45;;;;;;;3.83;3.43;;;;;;;;;;5071025;28;20842;-73
2022/08/15 04:05:13;;;;;;;4.27;3.60;;;;;;;;;;5092239;28;20479;-73
2022/08/15 04:07:41;;;;;;;3.60;3.20;;;;;;;;;;5093795;28;20432;-73
2022/08/15 04:10:10;;;;;;;4.30;3.73;;;;;;;;;;5093865;28;20932;-73
2022/08/15 04:12:40;;;;;;;4.37;3.90;;;;;;;;;;5093511;28;20443;-73
2022/08/15 04:15:11;;;;;;;4.07;3.30;;;;;;;;;;5075635;28;20463;-73
2022/08/15 04:17:38;;;;;;;4.27;3.87;;;;;;;;;;5094810;28;20443;-73
2022/08/15 04:20:07;;;;;;;4.33;3.10;;;;;;;;;;5096017;28;20450;-73
2022/08/15 04:22:36;;;;;;;3.43;3.13;;;;;;;;;;5091269;28;20420;-72
2022/08/15 04:25:04;;;;;;;3.63;3.33;;;;;;;;;;5089134;28;21311;-73
2022/08/15 04:27:31;;;;;;;3.60;3.30;;;;;;;;;;5091984;28;20440;-72
2022/08/15 04:29:59;;;;;;;3.77;3.47;;;;;;;;;;5092987;28;20443;-73
2022/08/15 04:32:28;;;;;;;4.97;3.50;;;;;;;;;;5093450;28;20546;-73
2022/08/15 04:34:55;;;;;;;3.70;3.30;;;;;;;;;;5093832;28;20474;-73
2022/08/15 04:37:23;;;;;;;3.57;3.27;;;;;;;;;;5093203;28;20529;-73
2022/08/15 04:39:50;;;;;;;4.10;3.60;;;;;;;;;;5094974;28;20939;-73
2022/08/15 04:42:20;;;;;;;4.20;3.33;;;;;;;;;;5095213;28;20451;-72
2022/08/15 04:44:47;;;;;;;4.50;3.50;;;;;;;;;;5090543;28;20486;-72
2022/08/15 04:47:14;;;;;;;3.97;3.60;;;;;;;;;;5089066;28;20442;-72
2022/08/15 04:49:44;;;;;;;5.20;3.20;;;;;;;;;;5091902;28;20442;-73
2022/08/15 04:52:12;;;;;;;4.37;3.40;;;;;;;;;;5092628;28;20443;-72
2022/08/15 04:54:40;;;;;;;4.60;2.87;;;;;;;;;;5092687;28;20991;-72
2022/08/15 04:57:08;;;;;;;4.57;3.40;;;;;;;;;;5093223;28;20431;-72
2022/08/15 04:59:36;;;;;;;4.23;3.43;;;;;;;;;;5092280;28;20473;-72
2022/08/15 05:02:03;;;;;;;3.37;3.07;;;;;;;;;;5095302;28;20787;-72
2022/08/15 05:04:31;;;;;;;3.50;3.20;;;;;;;;;;5094801;28;20490;-73
2022/08/15 05:07:00;;;;;;;3.07;2.87;;;;;;;;;;5089609;28;20493;-73
2022/08/15 05:09:27;;;;;;;3.67;3.37;;;;;;;;;;5088179;28;20442;-73
2022/08/15 05:11:54;;;;;;;6.53;3.30;;;;;;;;;;5091732;28;20518;-73
2022/08/15 05:14:22;;;;;;;5.73;3.03;;;;;;;;;;5092209;28;20443;-74
2022/08/15 05:16:49;;;;;;;5.00;3.23;;;;;;;;;;5092353;28;20538;-74
2022/08/15 05:19:16;;;;;;;3.60;3.03;;;;;;;;;;5092887;28;20538;-75
2022/08/15 05:21:43;;;;;;;5.03;3.20;;;;;;;;;;5091639;28;20887;-74
2022/08/15 05:24:12;;;;;;;3.17;2.87;;;;;;;;;;5093813;28;20570;-74
2022/08/15 05:26:40;;;;;;;4.87;3.07;;;;;;;;;;5094246;28;20542;-74
2022/08/15 05:29:07;;;;;;;3.40;2.67;;;;;;;;;;5070762;28;20432;-75
2022/08/15 05:31:35;;;;;;;3.30;3.00;;;;;;;;;;5088209;28;20431;-75
2022/08/15 05:34:03;;;;;;;3.40;3.03;;;;;;;;;;5091201;28;20443;-74
2022/08/15 05:36:33;;;;;;;3.80;3.33;;;;;;;;;;5091534;28;20469;-74
2022/08/15 05:39:01;;;;;;;6.10;3.20;;;;;;;;;;5092135;28;20500;-74
2022/08/15 05:41:34;;;;;;;3.77;3.37;;;;;;;;;;5074309;28;20467;-73
2022/08/15 05:44:03;;;;;;;4.43;2.93;;;;;;;;;;5091547;28;20565;-74
2022/08/15 05:46:40;;;;;;;3.60;3.20;;;;;;;;;;5093893;28;21049;-72
2022/08/15 05:49:13;;;;;;;4.30;2.77;;;;;;;;;;5076280;28;20880;-72
2022/08/15 05:51:46;;;;;;;5.20;3.40;;;;;;;;;;5088143;28;21008;-76
2022/08/15 05:54:17;;;;;;;4.80;3.37;;;;;;;;;;5087969;28;20578;-73
2022/08/15 05:56:51;;;;;;;4.70;2.87;;;;;;;;;;5090950;28;20970;-73
2022/08/15 05:59:19;;;;;;;3.77;3.37;;;;;;;;;;5092157;28;20447;-75
2022/08/15 06:01:50;;;;;;;3.10;2.80;;;;;;;;;;5094186;28;20443;-74
2022/08/15 06:04:21;;;;;;;4.83;2.73;;;;;;;;;;5094570;28;20561;-74
2022/08/15 06:06:49;;;;;;;5.07;3.20;;;;;;;;;;5094695;28;20943;-76
2022/08/15 06:09:24;;;;;;;5.47;3.43;;;;;;;;;;5097170;28;20803;-75
2022/08/15 06:11:55;;;;;;;8.20;3.33;;;;;;;;;;5093247;28;20513;-75
2022/08/15 06:14:26;;;;;;;7.30;3.10;;;;;;;;;;5087432;28;20516;-74
2022/08/15 06:16:54;;;;;;;3.27;2.77;;;;;;;;;;5088324;28;20436;-74
2022/08/15 06:19:23;;;;;;;3.47;2.70;;;;;;;;;;5072693;28;20495;-74
2022/08/15 06:21:55;;;;;;;5.60;2.93;;;;;;;;;;5091070;28;20526;-74
2022/08/15 06:24:27;;;;;;;3.83;2.80;;;;;;;;;;5091124;28;20524;-74
2022/08/15 06:26:59;;;;;;;5.40;3.37;;;;;;;;;;5091730;28;20754;-74
2022/08/15 06:29:41;;;;;;;5.07;3.20;;;;;;;;;;5091738;28;20621;-74
2022/08/15 06:32:12;;;;;;;6.40;3.00;;;;;;;;;;5093732;28;20466;-75
2022/08/15 06:34:41;;;;;;;5.50;3.33;;;;;;;;;;5090062;28;20534;-73
2022/08/15 06:37:12;;;;;;;5.07;3.30;;;;;;;;;;5085166;28;20538;-74
2022/08/15 06:39:43;;;;;;;4.87;3.00;;;;;;;;;;5086018;28;20531;-74
2022/08/15 06:42:16;;;;;;;9.70;3.20;;;;;;;;;;5090815;28;20435;-73
2022/08/15 06:44:43;;;;;;;4.70;3.00;;;;;;;;;;5089098;28;20481;-75
2022/08/15 06:47:11;;;;;;;4.53;2.77;;;;;;;;;;5083878;28;20455;-75
2022/08/15 06:49:40;;;;;;;4.80;2.57;;;;;;;;;;5089680;28;20435;-74
2022/08/15 06:52:08;;;;;;;4.87;2.90;;;;;;;;;;5089408;28;20454;-74
2022/08/15 06:54:37;;;;;;;5.23;3.03;;;;;;;;;;5087151;28;20542;-75
2022/08/15 06:57:08;;;;;;;4.07;3.17;;;;;;;;;;5088396;28;20442;-76
2022/08/15 06:59:39;;;;;;;4.70;2.93;;;;;;;;;;5090895;28;20467;-75
2022/08/15 07:02:18;;;;;;;5.00;3.20;;;;;;;;;;5090654;28;20448;-74
2022/08/15 07:04:52;;;;;;;4.90;2.73;;;;;;;;;;5091255;28;20579;-74
2022/08/15 07:07:23;;;;;;;3.30;2.87;;;;;;;;;;5091308;28;20497;-74
2022/08/15 07:09:52;;;;;;;6.50;3.03;;;;;;;;;;5074326;28;20455;-74
2022/08/15 07:12:23;;;;;;;5.87;2.87;;;;;;;;;;5092737;28;20553;-75
2022/08/15 07:14:56;;;;;;;5.87;3.13;;;;;;;;;;5089351;28;20566;-75
2022/08/15 07:17:27;;;;;;;3.27;2.90;;;;;;;;;;5087146;28;20428;-75
2022/08/15 07:19:54;;;;;;;5.43;3.53;;;;;;;;;;5089659;28;20439;-74
2022/08/15 07:22:21;;;;;;;6.10;3.87;;;;;;;;;;5090398;28;20439;-75
2022/08/15 07:24:51;;;;;;;6.07;3.40;;;;;;;;;;5072427;28;20485;-73
2022/08/15 07:27:20;;;;;;;7.93;3.30;;;;;;;;;;5091420;28;20439;-74
2022/08/15 07:29:49;;;;;;;8.20;3.63;;;;;;;;;;5090270;28;20431;-73
2022/08/15 07:32:23;;;;;;;5.60;3.80;;;;;;;;;;5072442;28;20543;-73
2022/08/15 07:34:55;;;;;;;3.77;3.33;;;;;;;;;;5055032;28;20550;-74
2022/08/15 07:37:23;;;;;;;10.80;4.00;;;;;;;;;;5082390;28;20527;-74
2022/08/15 07:39:58;;;;;;;5.37;3.97;;;;;;;;;;5068139;28;20432;-73
2022/08/15 07:42:26;;;;;;;6.33;3.20;;;;;;;;;;5089777;28;20924;-73
2022/08/15 07:44:55;;;;;;;6.17;4.00;;;;;;;;;;5090543;28;20562;-73
2022/08/15 07:47:25;;;;;;;5.73;3.33;;;;;;;;;;5090486;28;20440;-73
2022/08/15 07:50:03;;;;;;;5.63;3.23;;;;;;;;;;5076681;28;20538;-77
2022/08/15 07:52:31;;;;;;;3.67;3.07;;;;;;;;;;5094142;28;20451;-75
2022/08/15 07:54:59;;;;;;;4.73;3.80;;;;;;;;;;5078600;28;20463;-83
2022/08/15 07:57:28;;;;;;;3.50;2.90;;;;;;;;;;5096609;28;20451;-76
2022/08/15 08:00:11;;;;;;;7.30;3.47;;;;;;;;;;5091429;28;20432;-75
2022/08/15 08:02:42;;;;;;;5.83;4.00;;;;;;;;;;5074309;28;20735;-75
2022/08/15 08:05:11;;;;;;;6.80;3.70;;;;;;;;;;5093321;28;20574;-75
2022/08/15 08:07:40;;;;;;;5.33;3.40;;;;;;;;;;5093827;28;20500;-74
2022/08/15 08:10:13;;;;;;;4.97;3.33;;;;;;;;;;5094041;28;20497;-74
2022/08/15 08:12:46;;;;;;;4.10;3.10;;;;;;;;;;5094188;28;20836;-74
2022/08/15 08:15:18;;;;;;;3.27;2.97;;;;;;;;;;5094201;28;20498;-73
2022/08/15 08:17:50;;;;;;;4.20;3.53;;;;;;;;;;5096224;28;20478;-72
2022/08/15 08:20:21;;;;;;;3.40;3.10;;;;;;;;;;5095939;28;20435;-75
2022/08/15 08:22:54;;;;;;;5.90;3.03;;;;;;;;;;5090318;28;20788;-73
2022/08/15 08:25:25;;;;;;;4.97;3.47;;;;;;;;;;5090444;28;21087;-75
2022/08/15 08:27:58;;;;;;;5.67;3.23;;;;;;;;;;5093609;28;20526;-74
2022/08/15 08:30:26;;;;;;;4.33;3.07;;;;;;;;;;5094612;28;20531;-76
2022/08/15 08:32:59;;;;;;;3.30;3.00;;;;;;;;;;5093802;28;20542;-76
2022/08/15 08:35:31;;;;;;;4.90;3.80;;;;;;;;;;5076152;28;20545;-72
2022/08/15 08:38:03;;;;;;;4.80;3.70;;;;;;;;;;5094488;28;20524;-74
2022/08/15 08:43:19;;;;;;;3.90;3.13;;;;;;;;;;5094591;28;20818;-76
2022/08/15 08:45:48;;;;;;;4.13;3.23;;;;;;;;;;5089543;28;20498;-75
2022/08/15 08:48:27;;;;;;;14.40;3.50;;;;;;;;;;5071982;28;20427;-74
2022/08/15 08:50:58;;;;;;;6.13;3.23;;;;;;;;;;5092149;28;20847;-74
2022/08/15 08:53:29;;;;;;;7.17;3.50;;;;;;;;;;5089926;28;20538;-75
2022/08/15 08:55:58;;;;;;;4.33;3.60;;;;;;;;;;5072526;28;20845;-75
2022/08/15 08:58:28;;;;;;;4.27;3.60;;;;;;;;;;5090599;28;20439;-75
2022/08/15 09:00:57;;;;;;;6.00;3.50;;;;;;;;;;5090372;28;20469;-75
2022/08/15 09:03:29;;;;;;;5.47;3.83;;;;;;;;;;5087668;28;20447;-74
2022/08/15 09:05:57;;;;;;;5.63;3.37;;;;;;;;;;5067564;28;20905;-76
2022/08/15 09:08:26;;;;;;;6.80;4.10;;;;;;;;;;5088996;28;20522;-75
2022/08/15 09:10:55;;;;;;;4.07;3.50;;;;;;;;;;5089754;28;20520;-76
2022/08/15 09:16:09;;;;;;;6.20;3.57;;;;;;;;;;5076029;28;20871;-75
2022/08/15 09:18:38;;;;;;;3.97;3.57;;;;;;;;;;5090858;28;20458;-74
2022/08/15 09:21:06;;;;;;;6.60;3.57;;;;;;;;;;5094591;28;20779;-74
2022/08/15 09:23:35;;;;;;;5.80;3.30;;;;;;;;;;5094698;28;20483;-74
2022/08/15 09:26:05;;;;;;;4.27;3.27;;;;;;;;;;5090779;28;20487;-74
2022/08/15 09:28:34;;;;;;;3.37;3.07;;;;;;;;;;5088802;28;20457;-74
2022/08/15 09:31:03;;;;;;;4.83;3.60;;;;;;;;;;5091496;28;20435;-74
2022/08/15 09:33:38;;;;;;;4.73;3.80;;;;;;;;;;5092395;28;20968;-74
2022/08/15 09:36:17;;;;;;;6.80;3.63;;;;;;;;;;5092324;28;20864;-73
2022/08/15 09:38:48;;;;;;;4.43;2.80;;;;;;;;;;5075239;28;20870;-75
2022/08/15 09:41:22;;;;;;;3.90;3.43;;;;;;;;;;5092053;28;20510;-73
2022/08/15 09:44:00;;;;;;;9.50;3.50;;;;;;;;;;5094579;28;20514;-74
2022/08/15 09:46:37;;;;;;;5.23;3.37;;;;;;;;;;5094245;28;20493;-74
2022/08/15 09:49:13;;;;;;;4.57;3.10;;;;;;;;;;5089929;28;20431;-73
2022/08/15 09:51:57;;;;;;;4.00;3.00;;;;;;;;;;5088171;28;21119;-73
2022/08/15 09:54:25;;;;;;;5.03;3.23;;;;;;;;;;5054813;28;20451;-73
2022/08/15 09:56:53;;;;;;;3.00;2.53;;;;;;;;;;5071752;28;20523;-73
2022/08/15 09:59:22;;;;;;;3.90;3.50;;;;;;;;;;5072015;28;20466;-75
2022/08/15 10:01:51;;;;;;;3.30;2.93;;;;;;;;;;5072378;28;20523;-75
2022/08/15 10:04:20;;;;;;;5.20;3.73;;;;;;;;;;5077697;28;20532;-75
2022/08/15 10:06:52;;;;;;;4.00;3.23;;;;;;;;;;5094476;28;20542;-75
2022/08/15 10:09:24;;;;;;;5.07;3.30;;;;;;;;;;5094040;28;20439;-76
2022/08/15 10:12:02;;;;;;;5.20;3.43;;;;;;;;;;5088744;28;20436;-77
2022/08/15 10:14:42;;;;;;;6.07;3.40;;;;;;;;;;5069400;28;20971;-74
2022/08/15 10:17:25;;;;;;;4.70;3.60;;;;;;;;;;5053901;28;20957;-75
2022/08/15 10:19:52;;;;;;;3.80;3.27;;;;;;;;;;5055802;28;20444;-76
2022/08/15 10:22:34;;;;;;;3.23;2.87;;;;;;;;;;5071710;28;20539;-74
2022/08/15 10:25:16;;;;;;;4.43;3.30;;;;;;;;;;5071083;28;20579;-75
2022/08/15 10:27:58;;;;;;;3.60;3.30;;;;;;;;;;5083207;28;20646;-77
2022/08/15 10:30:30;;;;;;;4.60;3.67;;;;;;;;;;5078267;28;20862;-76
2022/08/15 10:32:58;;;;;;;3.77;3.37;;;;;;;;;;5093091;28;20455;-75
2022/08/15 10:35:27;;;;;;;2.90;2.70;;;;;;;;;;5068719;28;20532;-77
2022/08/15 10:37:56;;;;;;;3.70;3.23;;;;;;;;;;5070048;28;20813;-76
2022/08/15 10:40:38;;;;;;;3.50;3.00;;;;;;;;;;5091105;28;20553;-75
2022/08/15 10:43:13;;;;;;;6.93;3.10;;;;;;;;;;5090379;28;20537;-74
2022/08/15 10:45:47;;;;;;;3.50;3.20;;;;;;;;;;5091758;28;20571;-76
2022/08/15 10:48:22;;;;;;;6.33;3.00;;;;;;;;;;5091991;28;20500;-74
2022/08/15 10:50:53;;;;;;;6.73;2.90;;;;;;;;;;5092402;28;20457;-74
2022/08/15 10:53:30;;;;;;;3.70;2.90;;;;;;;;;;5075857;28;20530;-73
2022/08/15 10:56:07;;;;;;;6.60;3.80;;;;;;;;;;5091755;28;21026;-75
2022/08/15 10:58:34;;;;;;;3.43;3.13;;;;;;;;;;5087233;28;20423;-73
2022/08/15 11:01:06;;;;;;;5.07;3.60;;;;;;;;;;5088702;28;20530;-73
2022/08/15 11:03:39;;;;;;;5.47;3.60;;;;;;;;;;5073520;28;20916;-72
2022/08/15 11:06:07;;;;;;;3.50;3.20;;;;;;;;;;5091199;28;20483;-73
2022/08/15 11:08:36;;;;;;;3.30;3.00;;;;;;;;;;5073664;28;20527;-72
2022/08/15 11:11:05;;;;;;;3.67;3.23;;;;;;;;;;5091718;28;20462;-71
2022/08/15 11:13:33;;;;;;;3.57;3.27;;;;;;;;;;5074675;28;20953;-73
2022/08/15 11:16:08;;;;;;;5.00;3.40;;;;;;;;;;5075407;28;20562;-71
2022/08/15 11:18:38;;;;;;;6.67;3.17;;;;;;;;;;5074519;28;20533;-72
2022/08/15 11:21:16;;;;;;;4.30;3.40;;;;;;;;;;5086773;28;20416;-74
2022/08/15 11:23:44;;;;;;;4.37;3.13;;;;;;;;;;5090097;28;20438;-74
2022/08/15 11:26:13;;;;;;;4.50;3.20;;;;;;;;;;5094410;28;20483;-72
2022/08/15 11:28:41;;;;;;;3.70;3.13;;;;;;;;;;5076248;28;20461;-74
2022/08/15 11:31:14;;;;;;;4.00;3.37;;;;;;;;;;5094703;28;20461;-74
2022/08/15 11:33:43;;;;;;;3.70;3.40;;;;;;;;;;5077296;28;20542;-77
2022/08/15 11:36:13;;;;;;;3.83;3.50;;;;;;;;;;5095545;28;20562;-76
2022/08/15 11:38:43;;;;;;;8.03;3.67;;;;;;;;;;5096727;28;20525;-75
2022/08/15 11:41:11;;;;;;;5.23;3.70;;;;;;;;;;5095626;28;20466;-76
2022/08/15 11:43:40;;;;;;;4.60;3.80;;;;;;;;;;5090372;28;20438;-74
2022/08/15 11:46:07;;;;;;;6.00;3.50;;;;;;;;;;5091250;28;20548;-73
2022/08/15 11:48:36;;;;;;;5.70;4.10;;;;;;;;;;5093718;28;20438;-74
2022/08/15 11:51:07;;;;;;;3.80;3.40;;;;;;;;;;5094020;28;20533;-73
2022/08/15 11:53:37;;;;;;;4.30;3.57;;;;;;;;;;5076249;28;20461;-72
2022/08/15 11:56:04;;;;;;;4.00;3.60;;;;;;;;;;5076492;28;21039;-72
2022/08/15 11:58:33;;;;;;;3.70;3.40;;;;;;;;;;5095032;28;20525;-71
2022/08/15 12:01:01;;;;;;;4.80;3.30;;;;;;;;;;5097735;28;20546;-69
2022/08/15 12:03:31;;;;;;;5.60;4.07;;;;;;;;;;5079283;28;20888;-75
2022/08/15 12:05:59;;;;;;;10.60;3.87;;;;;;;;;;5091405;28;22116;-72
2022/08/15 12:08:29;;;;;;;3.50;3.20;;;;;;;;;;5073671;28;20852;-71
2022/08/15 12:11:06;;;;;;;6.73;4.13;;;;;;;;;;5077086;28;20530;-72
2022/08/15 12:13:33;;;;;;;5.30;3.80;;;;;;;;;;5077619;28;20435;-70
2022/08/15 12:16:01;;;;;;;7.80;3.97;;;;;;;;;;5097301;28;20559;-71
2022/08/15 12:18:33;;;;;;;6.40;3.90;;;;;;;;;;5096456;28;20435;-70
2022/08/15 12:21:07;;;;;;;3.80;3.50;;;;;;;;;;5077841;28;21015;-73
2022/08/15 12:23:37;;;;;;;4.40;3.97;;;;;;;;;;5078850;28;20873;-72
2022/08/15 12:26:05;;;;;;;3.87;3.47;;;;;;;;;;5078459;28;20570;-72
2022/08/15 12:28:33;;;;;;;4.33;3.53;;;;;;;;;;5090244;28;20431;-72
2022/08/15 12:31:02;;;;;;;4.63;3.60;;;;;;;;;;5072461;28;20422;-75
2022/08/15 12:33:31;;;;;;;3.43;3.10;;;;;;;;;;5093014;28;20440;-72
2022/08/15 12:35:58;;;;;;;3.80;3.37;;;;;;;;;;5093688;28;20462;-73
2022/08/15 12:38:25;;;;;;;3.90;3.50;;;;;;;;;;5093955;28;20435;-72
2022/08/15 12:40:55;;;;;;;4.10;3.40;;;;;;;;;;5093574;28;21046;-72
2022/08/15 12:43:22;;;;;;;6.13;3.47;;;;;;;;;;5075787;28;20457;-73
2022/08/15 12:45:49;;;;;;;3.90;3.60;;;;;;;;;;5095627;28;20483;-72
2022/08/15 12:48:19;;;;;;;3.50;3.03;;;;;;;;;;5095947;28;20589;-74
2022/08/15 12:50:47;;;;;;;3.90;3.57;;;;;;;;;;5090857;28;20446;-74
2022/08/15 12:53:14;;;;;;;5.17;3.70;;;;;;;;;;5089003;28;20912;-72
2022/08/15 12:55:41;;;;;;;3.23;2.97;;;;;;;;;;5092223;28;20463;-74
2022/08/15 12:58:10;;;;;;;3.80;3.30;;;;;;;;;;5092793;28;20526;-73
2022/08/15 13:00:37;;;;;;;3.37;3.03;;;;;;;;;;5075597;28;20442;-73
2022/08/15 13:03:07;;;;;;;5.60;3.90;;;;;;;;;;5093880;28;20478;-71
2022/08/15 13:05:35;;;;;;;3.37;3.17;;;;;;;;;;5092801;28;20495;-76
2022/08/15 13:08:02;;;;;;;4.07;3.63;;;;;;;;;;5095707;28;20942;-80
2022/08/15 13:10:30;;;;;;;5.30;3.37;;;;;;;;;;5094970;28;20530;-74
2022/08/15 13:12:57;;;;;;;3.43;3.13;;;;;;;;;;5091976;28;20846;-74
2022/08/15 13:15:25;;;;;;;3.03;2.73;;;;;;;;;;5088546;28;20447;-73
2022/08/15 13:17:53;;;;;;;4.33;2.80;;;;;;;;;;5090930;28;20435;-72
2022/08/15 13:25:42;;;;;;;3.90;3.50;;;;;;;;;;5091828;28;20564;-72
2022/08/15 13:28:09;;;;;;;4.53;3.40;;;;;;;;;;5091718;28;20530;-76
2022/08/15 13:30:38;;;;;;;3.63;3.33;;;;;;;;;;5094687;28;20802;-77
2022/08/15 13:33:05;;;;;;;4.20;3.20;;;;;;;;;;5094430;28;20534;-76
2022/08/15 13:35:32;;;;;;;4.10;3.67;;;;;;;;;;5091137;28;20538;-76
2022/08/15 13:38:01;;;;;;;5.93;3.40;;;;;;;;;;5087688;28;20939;-74
2022/08/15 13:40:29;;;;;;;6.17;4.07;;;;;;;;;;5089776;28;20447;-74
2022/08/15 13:42:59;;;;;;;4.07;3.53;;;;;;;;;;5092278;28;20774;-74
2022/08/15 13:45:27;;;;;;;5.60;3.50;;;;;;;;;;5074074;28;20983;-71
2022/08/15 13:47:55;;;;;;;3.60;3.30;;;;;;;;;;5092519;28;20448;-73
2022/08/15 13:50:24;;;;;;;3.83;3.30;;;;;;;;;;5074530;28;20530;-75
2022/08/15 13:52:52;;;;;;;4.30;3.40;;;;;;;;;;5075463;28;20451;-73
2022/08/15 13:55:21;;;;;;;4.13;3.57;;;;;;;;;;5094472;28;20546;-74
2022/08/15 13:57:49;;;;;;;4.10;3.70;;;;;;;;;;5092530;28;20447;-74
2022/08/15 14:00:17;;;;;;;4.43;3.80;;;;;;;;;;5087848;28;20423;-72
2022/08/15 14:02:46;;;;;;;4.20;3.80;;;;;;;;;;5089226;28;20450;-73
2022/08/15 14:05:16;;;;;;;3.43;3.17;;;;;;;;;;5091955;28;20464;-71
2022/08/15 14:07:45;;;;;;;4.50;3.20;;;;;;;;;;5091730;28;20479;-73
2022/08/15 14:10:12;;;;;;;3.73;2.90;;;;;;;;;;5091888;28;20927;-73
2022/08/15 14:12:42;;;;;;;6.70;3.53;;;;;;;;;;5092327;28;20864;-71
2022/08/15 14:15:11;;;;;;;3.73;3.33;;;;;;;;;;5092389;28;20475;-75
2022/08/15 14:17:39;;;;;;;4.07;3.60;;;;;;;;;;5094098;28;20548;-75
2022/08/15 14:20:08;;;;;;;3.67;3.37;;;;;;;;;;5093048;28;20431;-74
2022/08/15 14:22:37;;;;;;;4.10;3.60;;;;;;;;;;5087434;28;20766;-72
2022/08/15 14:25:06;;;;;;;3.40;3.10;;;;;;;;;;5088137;28;20542;-73
2022/08/15 14:27:33;;;;;;;4.60;3.10;;;;;;;;;;5091389;28;21082;-75
2022/08/15 14:30:01;;;;;;;6.00;3.07;;;;;;;;;;5091436;28;20523;-72
2022/08/15 14:32:28;;;;;;;4.07;3.50;;;;;;;;;;5091799;28;20835;-72
2022/08/15 14:34:56;;;;;;;3.93;2.90;;;;;;;;;;5092171;28;20459;-75
2022/08/15 14:37:23;;;;;;;3.60;3.03;;;;;;;;;;5092053;28;20892;-73
2022/08/15 14:39:52;;;;;;;4.97;3.20;;;;;;;;;;5093742;28;20443;-75
2022/08/15 14:42:20;;;;;;;3.00;2.80;;;;;;;;;;5093129;28;20455;-71
2022/08/15 14:44:47;;;;;;;3.20;2.50;;;;;;;;;;5087470;28;20451;-74
2022/08/15 14:47:16;;;;;;;3.13;2.60;;;;;;;;;;5088478;28;20485;-72
2022/08/15 14:49:45;;;;;;;4.83;3.00;;;;;;;;;;5072880;28;20446;-73
2022/08/15 14:52:12;;;;;;;2.67;2.47;;;;;;;;;;5080011;28;20509;-81
2022/08/15 14:54:40;;;;;;;2.53;2.33;;;;;;;;;;5070705;28;20460;-73
2022/08/15 14:57:10;;;;;;;3.97;2.60;;;;;;;;;;5072648;28;20471;-79
2022/08/15 14:59:38;;;;;;;5.30;3.00;;;;;;;;;;5078775;28;20455;-75
2022/08/15 15:02:06;;;;;;;3.17;2.93;;;;;;;;;;5089701;28;20422;-79
2022/08/15 15:04:33;;;;;;;5.67;3.20;;;;;;;;;;5092173;28;20451;-79
2022/08/15 15:07:00;;;;;;;4.23;2.90;;;;;;;;;;5095109;28;20482;-80
2022/08/15 15:09:28;;;;;;;2.90;2.40;;;;;;;;;;5094977;28;20435;-80